Terminal Aerodrome Forecast
Issued by NWS Greer, SC

Current Version | Previous Version | Text Only | Print | Product List | Glossary On
Versions: 1 2 3 4 5 6 7 8 9 10 11 12 13 14 15 16 17 18 19 20 21 22 23 24 25 26
000
FTUS42 KGSP 232158 AAB
TAFCLT
TAF AMD
KCLT 232158Z 2322/2418 20010KT P6SM VCSH FEW050 BKN250
     FM240000 19003KT P6SM FEW060 SCT250
     FM240300 17002KT P6SM FEW250
     FM241500 19004KT P6SM FEW050=

USA.gov is the U.S. government's official web portal to all federal, state and local government web resources and services.